createdAt,value
2022-07-28T00:02:09.370Z,0
2022-07-28T00:07:09.335Z,0
2022-07-28T00:12:09.335Z,0
2022-07-28T00:17:09.352Z,0
2022-07-28T00:22:09.381Z,0
2022-07-28T00:27:09.440Z,0
2022-07-28T00:32:09.471Z,0
2022-07-28T00:37:09.421Z,0
2022-07-28T00:42:09.453Z,0
2022-07-28T00:47:09.493Z,0
2022-07-28T00:52:09.477Z,0
2022-07-28T00:57:09.505Z,0
2022-07-28T01:02:09.633Z,0
2022-07-28T01:07:09.567Z,0
2022-07-28T01:12:09.559Z,0
2022-07-28T01:17:09.599Z,0
2022-07-28T01:22:09.604Z,0
2022-07-28T01:27:09.649Z,0
2022-07-28T01:32:09.645Z,0
2022-07-28T01:37:09.662Z,0
2022-07-28T01:42:09.670Z,0
2022-07-28T01:47:09.718Z,0
2022-07-28T01:52:09.740Z,0
2022-07-28T01:57:09.741Z,0
2022-07-28T02:02:09.852Z,0
2022-07-28T02:07:09.807Z,0
2022-07-28T02:12:09.817Z,0
2022-07-28T02:17:09.828Z,0
2022-07-28T02:22:09.823Z,0
2022-07-28T02:27:09.900Z,0
2022-07-28T02:32:27.571Z,0
2022-07-28T02:37:09.931Z,0
2022-07-28T02:42:09.920Z,0
2022-07-28T02:47:09.992Z,0
2022-07-28T02:52:09.981Z,0
2022-07-28T02:57:10.007Z,0
2022-07-28T03:02:10.053Z,0
2022-07-28T03:07:10.877Z,0
2022-07-28T03:12:10.038Z,0
2022-07-28T03:17:10.158Z,0
2022-07-28T03:22:10.238Z,0
2022-07-28T03:27:10.140Z,0
2022-07-28T03:32:10.152Z,0
2022-07-28T03:37:10.139Z,0
2022-07-28T03:42:10.165Z,0
2022-07-28T03:47:10.212Z,4
2022-07-28T03:52:10.218Z,5
2022-07-28T03:57:10.230Z,7
2022-07-28T04:02:10.336Z,9
2022-07-28T04:07:10.290Z,4
2022-07-28T04:12:10.324Z,8
2022-07-28T04:17:10.380Z,14
2022-07-28T04:22:10.337Z,7
2022-07-28T04:27:10.352Z,11
2022-07-28T04:32:10.403Z,12
2022-07-28T04:37:10.415Z,14
2022-07-28T04:42:10.447Z,16
2022-07-28T04:47:10.450Z,15
2022-07-28T04:52:10.485Z,15
2022-07-28T04:57:11.428Z,15
2022-07-28T05:02:10.509Z,14
2022-07-28T05:07:11.971Z,17
2022-07-28T05:12:10.552Z,18
2022-07-28T05:17:10.559Z,17
2022-07-28T05:22:10.572Z,17
2022-07-28T05:27:10.641Z,19
2022-07-28T05:32:16.283Z,22
2022-07-28T05:37:10.687Z,24
2022-07-28T05:42:10.663Z,26
2022-07-28T05:47:10.753Z,29
2022-07-28T05:52:10.734Z,30
2022-07-28T05:57:10.750Z,29
2022-07-28T06:02:10.806Z,30
2022-07-28T06:07:10.857Z,31
2022-07-28T06:12:10.784Z,34
2022-07-28T06:17:10.813Z,36
2022-07-28T06:22:10.852Z,41
2022-07-28T06:27:10.851Z,45
2022-07-28T06:32:10.958Z,47
2022-07-28T06:37:10.927Z,51
2022-07-28T06:42:10.984Z,55
2022-07-28T06:47:10.995Z,62
2022-07-28T06:52:10.964Z,117
2022-07-28T06:57:11.000Z,119
2022-07-28T07:02:10.999Z,159
2022-07-28T07:07:11.885Z,174
2022-07-28T07:12:11.096Z,245
2022-07-28T07:17:11.087Z,318
2022-07-28T07:22:11.125Z,303
2022-07-28T07:27:11.154Z,309
2022-07-28T07:32:11.246Z,372
2022-07-28T07:37:11.139Z,400
2022-07-28T07:42:11.169Z,361
2022-07-28T07:47:11.200Z,397
2022-07-28T07:52:11.243Z,457
2022-07-28T07:57:11.276Z,527
2022-07-28T08:02:11.417Z,529
2022-07-28T08:07:11.265Z,514
2022-07-28T08:12:11.293Z,523
2022-07-28T08:17:12.007Z,563
2022-07-28T08:22:11.983Z,591
2022-07-28T08:27:11.985Z,621
2022-07-28T08:32:11.995Z,622
2022-07-28T08:37:12.040Z,567
2022-07-28T08:42:12.062Z,583
2022-07-28T08:47:17.504Z,657
2022-07-28T08:52:17.545Z,690
2022-07-28T08:57:17.539Z,744
2022-07-28T09:02:18.011Z,740
2022-07-28T09:07:18.055Z,756
2022-07-28T09:12:19.434Z,779
2022-07-28T09:17:19.444Z,758
2022-07-28T09:22:19.435Z,777
2022-07-28T09:27:19.490Z,831
2022-07-28T09:32:19.485Z,856
2022-07-28T09:37:22.136Z,398
2022-07-28T09:42:22.080Z,848
2022-07-28T09:47:21.954Z,897
2022-07-28T09:52:21.848Z,883
2022-07-28T09:57:21.842Z,881
2022-07-28T10:02:21.954Z,811
2022-07-28T10:07:21.853Z,860
2022-07-28T10:12:21.904Z,883
2022-07-28T10:17:21.926Z,774
2022-07-28T10:22:22.016Z,846
2022-07-28T10:27:23.373Z,932
2022-07-28T10:32:23.317Z,920
2022-07-28T10:37:23.313Z,900
2022-07-28T10:42:23.445Z,942
2022-07-28T10:47:23.479Z,958
2022-07-28T10:52:53.580Z,907
2022-07-28T10:57:27.582Z,932
2022-07-28T11:02:27.501Z,1005
2022-07-28T11:07:27.597Z,1023
2022-07-28T11:12:28.420Z,1063
2022-07-28T11:17:33.036Z,685
2022-07-28T11:22:27.503Z,1009
2022-07-28T11:27:28.302Z,871
2022-07-28T11:32:30.527Z,1019
2022-07-28T11:37:28.386Z,1009
2022-07-28T11:42:28.359Z,992
2022-07-28T11:47:28.394Z,1009
2022-07-28T11:52:29.129Z,1019
2022-07-28T11:57:29.149Z,1012
2022-07-28T12:02:29.233Z,1004
2022-07-28T12:07:29.233Z,998
2022-07-28T12:12:29.203Z,994
2022-07-28T12:17:32.757Z,998
2022-07-28T12:22:55.999Z,998
2022-07-28T12:27:47.394Z,995
2022-07-28T12:32:48.114Z,940
2022-07-28T12:37:48.105Z,990
2022-07-28T12:42:53.740Z,1009
2022-07-28T12:47:54.211Z,916
2022-07-28T12:52:54.123Z,932
2022-07-28T12:57:54.845Z,918
2022-07-28T13:02:57.811Z,494
2022-07-28T13:07:57.733Z,343
2022-07-28T13:13:01.296Z,805
2022-07-28T13:18:01.332Z,859
2022-07-28T13:23:02.296Z,868
2022-07-28T13:28:02.235Z,826
2022-07-28T13:33:02.244Z,834
2022-07-28T13:38:02.278Z,794
2022-07-28T13:43:02.295Z,664
2022-07-28T13:48:02.386Z,785
2022-07-28T13:53:02.348Z,706
2022-07-28T13:58:06.808Z,616
2022-07-28T14:03:02.689Z,679
2022-07-28T14:08:02.642Z,719
2022-07-28T14:13:02.862Z,733
2022-07-28T14:18:10.023Z,720
2022-07-28T14:23:10.105Z,680
2022-07-28T14:28:10.099Z,650
2022-07-28T14:33:10.126Z,602
2022-07-28T14:43:10.142Z,633
2022-07-28T14:48:10.150Z,597
2022-07-28T14:53:12.634Z,565
2022-07-28T14:58:13.814Z,604
2022-07-28T15:03:15.684Z,600
2022-07-28T15:08:15.664Z,545
2022-07-28T15:13:15.658Z,514
2022-07-28T15:18:15.719Z,566
2022-07-28T15:23:15.753Z,506
2022-07-28T15:28:17.685Z,466
2022-07-28T15:33:15.757Z,415
2022-07-28T15:38:15.804Z,476
2022-07-28T15:43:15.813Z,384
2022-07-28T15:48:15.799Z,289
2022-07-28T15:53:16.083Z,298
2022-07-28T15:58:16.124Z,298
2022-07-28T16:03:16.164Z,253
2022-07-28T16:08:16.146Z,207
2022-07-28T16:13:19.559Z,198
2022-07-28T16:18:16.172Z,196
2022-07-28T16:23:16.199Z,233
2022-07-28T16:28:16.338Z,225
2022-07-28T16:33:16.283Z,219
2022-07-28T16:38:16.287Z,239
2022-07-28T16:43:16.296Z,202
2022-07-28T16:48:16.314Z,180
2022-07-28T16:53:16.413Z,134
2022-07-28T16:58:16.356Z,118
2022-07-28T17:03:16.407Z,108
2022-07-28T17:08:16.458Z,96
2022-07-28T17:13:16.438Z,98
2022-07-28T17:18:18.403Z,82
2022-07-28T17:23:16.494Z,70
2022-07-28T17:28:16.501Z,68
2022-07-28T17:33:16.531Z,65
2022-07-28T17:38:16.609Z,63
2022-07-28T17:43:16.567Z,57
2022-07-28T17:48:16.583Z,55
2022-07-28T17:53:16.617Z,53
2022-07-28T17:58:16.607Z,43
2022-07-28T18:03:16.713Z,40
2022-07-28T18:08:16.649Z,34
2022-07-28T18:13:16.697Z,33
2022-07-28T18:18:16.688Z,33
2022-07-28T18:23:16.767Z,27
2022-07-28T18:28:16.782Z,23
2022-07-28T18:33:16.765Z,18
2022-07-28T18:38:16.833Z,17
2022-07-28T18:43:17.001Z,13
2022-07-28T18:48:16.839Z,11
2022-07-28T18:53:16.863Z,16
2022-07-28T18:58:16.853Z,9
2022-07-28T19:03:17.242Z,6
2022-07-28T19:08:17.230Z,2
2022-07-28T19:13:18.468Z,0
2022-07-28T19:18:18.639Z,0
2022-07-28T19:23:19.873Z,0
2022-07-28T19:28:19.852Z,0
2022-07-28T19:33:19.911Z,0
2022-07-28T19:38:19.886Z,0
2022-07-28T19:43:19.923Z,0
2022-07-28T19:48:19.939Z,0
2022-07-28T19:53:19.992Z,0
2022-07-28T19:58:20.015Z,0
2022-07-28T20:04:00.518Z,0
2022-07-28T20:08:20.013Z,0
2022-07-28T20:13:20.073Z,0
2022-07-28T20:18:20.081Z,0
2022-07-28T20:23:20.052Z,0
2022-07-28T20:28:20.134Z,0
2022-07-28T20:33:20.135Z,0
2022-07-28T20:38:20.202Z,0
2022-07-28T20:43:20.203Z,0
2022-07-28T20:48:20.198Z,0
2022-07-28T20:53:20.233Z,0
2022-07-28T20:58:20.270Z,0
2022-07-28T21:03:20.268Z,0
2022-07-28T21:08:20.300Z,0
2022-07-28T21:13:20.301Z,0
2022-07-28T21:18:20.334Z,0
2022-07-28T21:23:20.355Z,0
2022-07-28T21:28:20.363Z,0
2022-07-28T21:33:22.446Z,0
2022-07-28T21:38:20.404Z,0
2022-07-28T21:43:20.431Z,0
2022-07-28T21:48:20.457Z,0
2022-07-28T21:53:20.445Z,0
2022-07-28T21:58:20.479Z,0
2022-07-28T22:03:20.505Z,0
2022-07-28T22:08:20.547Z,0
2022-07-28T22:13:20.538Z,0
2022-07-28T22:18:20.550Z,0
2022-07-28T22:23:28.848Z,0
2022-07-28T22:28:29.314Z,0
2022-07-28T22:33:20.630Z,0
2022-07-28T22:38:20.648Z,0
2022-07-28T22:43:20.680Z,0
2022-07-28T22:48:20.709Z,0
2022-07-28T22:53:20.706Z,0
2022-07-28T22:58:20.746Z,0
2022-07-28T23:03:20.810Z,0
2022-07-28T23:08:20.804Z,0
2022-07-28T23:13:20.797Z,0
2022-07-28T23:18:20.795Z,0
2022-07-28T23:23:20.847Z,0
2022-07-28T23:28:20.873Z,0
2022-07-28T23:33:54.814Z,0
2022-07-28T23:38:20.908Z,0
2022-07-28T23:43:20.903Z,0
2022-07-28T23:48:20.948Z,0
2022-07-28T23:53:20.982Z,0
2022-07-28T23:58:20.987Z,0
